createdAt,value
2018-01-12T00:00:30.418Z,74.40
2018-01-12T00:01:30.402Z,74.49
2018-01-12T00:02:51.394Z,74.02
2018-01-12T00:03:30.393Z,74.30
2018-01-12T00:04:30.368Z,74.40
2018-01-12T00:05:30.355Z,74.21
2018-01-12T00:06:30.342Z,74.21
2018-01-12T00:07:30.336Z,74.49
2018-01-12T00:08:51.323Z,74.40
2018-01-12T00:09:30.306Z,74.58
2018-01-12T00:10:30.294Z,74.21
2018-01-12T00:11:30.278Z,74.40
2018-01-12T00:12:30.266Z,74.40
2018-01-12T00:13:30.258Z,74.58
2018-01-12T00:14:51.264Z,74.30
2018-01-12T00:15:30.234Z,74.49
2018-01-12T00:16:30.281Z,74.58
2018-01-12T00:17:30.205Z,74.49
2018-01-12T00:18:30.196Z,74.49
2018-01-12T00:19:30.181Z,74.30
2018-01-12T00:20:51.174Z,74.58
2018-01-12T00:21:30.160Z,74.40
2018-01-12T00:22:30.151Z,74.21
2018-01-12T00:23:30.155Z,74.30
2018-01-12T00:24:30.120Z,74.49
2018-01-12T00:25:30.107Z,74.49
2018-01-12T00:26:51.114Z,74.40
2018-01-12T00:27:30.089Z,74.30
2018-01-12T00:28:30.087Z,74.30
2018-01-12T00:29:30.120Z,74.49
2018-01-12T00:30:30.046Z,74.40
2018-01-12T00:31:30.039Z,74.49
2018-01-12T00:32:51.027Z,74.49
2018-01-12T00:33:30.010Z,74.49
2018-01-12T00:34:29.996Z,74.30
2018-01-12T00:35:29.992Z,74.58
2018-01-12T00:36:29.970Z,74.58
2018-01-12T00:37:29.960Z,74.58
2018-01-12T00:38:50.953Z,74.40
2018-01-12T00:39:29.938Z,74.11
2018-01-12T00:40:29.921Z,74.58
2018-01-12T00:41:29.912Z,74.11
2018-01-12T00:42:29.909Z,74.40
2018-01-12T00:43:29.887Z,74.40
2018-01-12T00:44:50.876Z,74.30
2018-01-12T00:45:29.862Z,74.21
2018-01-12T00:46:29.850Z,74.11
2018-01-12T00:47:29.929Z,74.49
2018-01-12T00:48:29.843Z,74.30
2018-01-12T00:49:29.819Z,74.02
2018-01-12T00:50:50.818Z,74.58
2018-01-12T00:51:29.787Z,74.30
2018-01-12T00:52:29.773Z,74.30
2018-01-12T00:53:29.764Z,74.21
2018-01-12T00:54:29.753Z,74.30
2018-01-12T00:55:29.738Z,74.21
2018-01-12T00:56:50.744Z,74.58
2018-01-12T00:57:29.718Z,74.40
2018-01-12T00:58:29.700Z,74.30
2018-01-12T00:59:29.689Z,74.11
2018-01-12T01:00:29.677Z,74.30
2018-01-12T01:01:29.661Z,74.58
2018-01-12T01:02:50.655Z,74.30
2018-01-12T01:03:29.664Z,74.30
2018-01-12T01:04:29.628Z,74.58
2018-01-12T01:05:29.619Z,74.11
2018-01-12T01:06:29.691Z,74.30
2018-01-12T01:07:29.623Z,74.02
2018-01-12T01:08:50.625Z,74.11
2018-01-12T01:09:29.572Z,74.49
2018-01-12T01:10:29.552Z,74.02
2018-01-12T01:11:29.539Z,74.49
2018-01-12T01:12:29.527Z,74.11
2018-01-12T01:13:29.516Z,74.02
2018-01-12T01:14:50.505Z,74.11
2018-01-12T01:15:29.495Z,74.11
2018-01-12T01:16:29.549Z,74.02
2018-01-12T01:17:29.469Z,73.92
2018-01-12T01:18:29.458Z,74.21
2018-01-12T01:19:29.437Z,74.02
2018-01-12T01:20:50.433Z,73.83
2018-01-12T01:21:29.421Z,73.83
2018-01-12T01:22:29.402Z,73.83
2018-01-12T01:23:29.394Z,73.92
2018-01-12T01:24:29.382Z,73.83
2018-01-12T01:25:29.379Z,74.02
2018-01-12T01:26:50.365Z,74.11
2018-01-12T01:27:29.345Z,74.11
2018-01-12T01:28:29.336Z,74.02
2018-01-12T01:29:29.318Z,74.02
2018-01-12T01:30:29.305Z,74.02
2018-01-12T01:31:29.296Z,74.02
2018-01-12T01:32:50.286Z,73.92
2018-01-12T01:33:29.264Z,74.02
2018-01-12T01:34:29.276Z,74.11
2018-01-12T01:35:29.249Z,73.92
2018-01-12T01:36:29.231Z,74.11
2018-01-12T01:37:29.222Z,74.02
2018-01-12T01:38:50.215Z,74.11
2018-01-12T01:39:29.215Z,74.02
2018-01-12T01:40:29.199Z,73.83
2018-01-12T01:41:29.171Z,73.83
2018-01-12T01:42:29.160Z,74.49
2018-01-12T01:43:29.148Z,74.11
2018-01-12T01:44:50.139Z,74.49
2018-01-12T01:45:29.129Z,74.11
2018-01-12T01:46:29.110Z,74.30
2018-01-12T01:47:29.094Z,74.21
2018-01-12T01:48:29.085Z,74.11
2018-01-12T01:49:29.071Z,74.11
2018-01-12T01:50:50.072Z,74.49
2018-01-12T01:51:29.047Z,74.02
2018-01-12T01:52:29.032Z,74.02
2018-01-12T01:53:29.021Z,74.49
2018-01-12T01:54:29.011Z,74.40
2018-01-12T01:55:28.995Z,74.02
2018-01-12T01:56:49.989Z,74.58
2018-01-12T01:57:28.972Z,74.58
2018-01-12T01:58:28.960Z,74.49
2018-01-12T01:59:28.945Z,74.40
2018-01-12T02:00:28.936Z,74.02
2018-01-12T02:01:28.922Z,74.49
2018-01-12T02:02:49.914Z,74.30
2018-01-12T02:03:28.902Z,74.40
2018-01-12T02:04:28.887Z,74.30
2018-01-12T02:05:28.870Z,74.30
2018-01-12T02:06:28.858Z,74.21
2018-01-12T02:07:28.851Z,74.49
2018-01-12T02:08:49.839Z,74.49
2018-01-12T02:09:28.821Z,74.21
2018-01-12T02:10:28.812Z,74.30
2018-01-12T02:11:28.802Z,74.11
2018-01-12T02:12:28.786Z,74.40
2018-01-12T02:13:28.774Z,74.40
2018-01-12T02:14:49.766Z,74.40
2018-01-12T02:15:28.752Z,74.96
2018-01-12T02:16:28.733Z,74.21
2018-01-12T02:17:28.733Z,74.58
2018-01-12T02:18:28.709Z,74.30
2018-01-12T02:19:28.697Z,74.68
2018-01-12T02:20:49.693Z,75.15
2018-01-12T02:21:28.672Z,74.49
2018-01-12T02:22:28.661Z,74.21
2018-01-12T02:23:28.648Z,74.40
2018-01-12T02:24:28.632Z,74.58
2018-01-12T02:25:28.622Z,74.49
2018-01-12T02:26:49.691Z,74.96
2018-01-12T02:27:28.602Z,74.87
2018-01-12T02:28:28.586Z,74.68
2018-01-12T02:29:28.572Z,74.40
2018-01-12T02:30:28.561Z,74.21
2018-01-12T02:31:28.556Z,75.05
2018-01-12T02:32:49.539Z,75.15
2018-01-12T02:33:28.523Z,74.77
2018-01-12T02:34:28.518Z,74.49
2018-01-12T02:35:28.500Z,74.58
2018-01-12T02:36:28.485Z,74.58
2018-01-12T02:37:28.482Z,74.49
2018-01-12T02:38:49.483Z,74.96
2018-01-12T02:39:28.469Z,74.58
2018-01-12T02:40:28.437Z,74.30
2018-01-12T02:41:28.424Z,74.40
2018-01-12T02:42:28.420Z,75.15
2018-01-12T02:43:28.395Z,74.40
2018-01-12T02:44:49.387Z,74.40
2018-01-12T02:45:28.372Z,75.05
2018-01-12T02:46:28.363Z,74.49
2018-01-12T02:47:28.351Z,74.68
2018-01-12T02:48:28.361Z,74.49
2018-01-12T02:49:28.323Z,74.96
2018-01-12T02:50:49.471Z,74.49
2018-01-12T02:51:28.301Z,74.49
2018-01-12T02:52:28.289Z,74.40
2018-01-12T02:53:28.283Z,74.30
2018-01-12T02:54:28.267Z,74.49
2018-01-12T02:55:28.261Z,74.58
2018-01-12T02:56:49.257Z,74.30
2018-01-12T02:57:28.247Z,74.77
2018-01-12T02:58:28.217Z,75.05
2018-01-12T02:59:28.197Z,74.96
2018-01-12T03:00:28.188Z,74.96
2018-01-12T03:01:28.177Z,74.96
2018-01-12T03:02:49.169Z,74.77
2018-01-12T03:03:28.149Z,74.96
2018-01-12T03:04:28.152Z,74.68
2018-01-12T03:05:28.122Z,74.58
2018-01-12T03:06:28.135Z,74.77
2018-01-12T03:07:28.100Z,74.87
2018-01-12T03:08:49.087Z,74.77
2018-01-12T03:09:28.097Z,75.15
2018-01-12T03:10:28.083Z,75.15
2018-01-12T03:11:28.065Z,74.96
2018-01-12T03:12:28.074Z,74.87
2018-01-12T03:13:28.044Z,74.96
2018-01-12T03:14:49.016Z,74.49
2018-01-12T03:15:28.000Z,75.15
2018-01-12T03:16:27.986Z,74.96
2018-01-12T03:17:27.971Z,74.96
2018-01-12T03:18:27.963Z,74.96
2018-01-12T03:19:27.946Z,74.96
2018-01-12T03:20:48.982Z,75.05
2018-01-12T03:21:27.930Z,74.77
2018-01-12T03:22:27.929Z,75.24
2018-01-12T03:23:27.899Z,75.05
2018-01-12T03:24:27.888Z,75.05
2018-01-12T03:25:27.888Z,74.77
2018-01-12T03:26:48.865Z,75.05
2018-01-12T03:27:27.849Z,74.96
2018-01-12T03:28:27.834Z,75.05
2018-01-12T03:29:27.824Z,75.05
2018-01-12T03:30:27.820Z,75.34
2018-01-12T03:31:27.805Z,75.72
2018-01-12T03:32:48.797Z,74.68
2018-01-12T03:33:27.771Z,75.05
2018-01-12T03:34:27.766Z,75.72
2018-01-12T03:35:27.751Z,75.15
2018-01-12T03:36:27.735Z,74.87
2018-01-12T03:37:27.718Z,74.96
2018-01-12T03:38:48.712Z,75.05
2018-01-12T03:39:27.697Z,74.68
2018-01-12T03:40:27.680Z,74.68
2018-01-12T03:41:27.668Z,75.72
2018-01-12T03:42:27.658Z,74.96
2018-01-12T03:43:27.644Z,74.87
2018-01-12T03:44:48.636Z,75.15
2018-01-12T03:45:27.618Z,74.87
2018-01-12T03:46:27.606Z,74.96
2018-01-12T03:47:27.593Z,75.15
2018-01-12T03:48:27.591Z,75.15
2018-01-12T03:49:27.571Z,74.77
2018-01-12T03:50:48.560Z,74.77
2018-01-12T03:51:27.541Z,75.24
2018-01-12T03:52:27.523Z,75.62
2018-01-12T03:53:27.525Z,75.05
2018-01-12T03:54:27.525Z,75.81
2018-01-12T03:55:27.494Z,75.34
2018-01-12T03:56:48.478Z,75.24
2018-01-12T03:57:27.468Z,75.81
2018-01-12T03:58:27.455Z,75.15
2018-01-12T03:59:27.442Z,74.87
2018-01-12T04:00:27.426Z,74.87
2018-01-12T04:01:27.415Z,75.05
2018-01-12T04:02:48.410Z,75.43
2018-01-12T04:03:27.391Z,75.81
2018-01-12T04:04:27.378Z,74.68
2018-01-12T04:05:27.368Z,74.77
2018-01-12T04:06:27.354Z,74.96
2018-01-12T04:07:27.340Z,74.77
2018-01-12T04:08:48.341Z,75.34
2018-01-12T04:09:27.325Z,75.81
2018-01-12T04:10:27.303Z,75.15
2018-01-12T04:11:27.287Z,74.77
2018-01-12T04:12:27.276Z,74.77
2018-01-12T04:13:27.266Z,74.77
2018-01-12T04:14:48.305Z,75.05
2018-01-12T04:15:27.282Z,75.15
2018-01-12T04:16:27.223Z,75.24
2018-01-12T04:17:27.210Z,75.72
2018-01-12T04:18:27.212Z,74.96
2018-01-12T04:19:27.184Z,75.05
2018-01-12T04:20:48.179Z,75.05
2018-01-12T04:21:27.157Z,74.87
2018-01-12T04:22:27.177Z,75.53
2018-01-12T04:23:27.135Z,75.34
2018-01-12T04:24:27.120Z,74.58
2018-01-12T04:25:27.123Z,75.15
2018-01-12T04:26:48.127Z,75.15
2018-01-12T04:27:27.086Z,74.77
2018-01-12T04:28:27.075Z,74.96
2018-01-12T04:29:27.057Z,74.68
2018-01-12T04:30:27.044Z,74.68
2018-01-12T04:31:27.033Z,74.96
2018-01-12T04:32:48.024Z,75.15
2018-01-12T04:33:27.008Z,75.53
2018-01-12T04:34:26.996Z,74.96
2018-01-12T04:35:27.036Z,75.05
2018-01-12T04:36:26.968Z,74.96
2018-01-12T04:37:26.956Z,75.53
2018-01-12T04:38:47.948Z,74.96
2018-01-12T04:39:26.931Z,74.68
2018-01-12T04:40:26.967Z,75.05
2018-01-12T04:41:26.907Z,74.58
2018-01-12T04:42:26.895Z,74.77
2018-01-12T04:43:26.884Z,74.68
2018-01-12T04:44:47.877Z,75.15
2018-01-12T04:45:26.888Z,74.77
2018-01-12T04:46:26.844Z,75.43
2018-01-12T04:47:26.834Z,75.43
2018-01-12T04:48:26.828Z,75.72
2018-01-12T04:49:26.814Z,74.96
2018-01-12T04:50:47.801Z,75.62
2018-01-12T04:51:26.786Z,75.72
2018-01-12T04:52:26.777Z,75.53
2018-01-12T04:53:26.833Z,75.53
2018-01-12T04:54:26.749Z,75.72
2018-01-12T04:55:26.739Z,75.53
2018-01-12T04:56:47.721Z,75.91
2018-01-12T04:57:26.709Z,75.43
2018-01-12T04:58:26.698Z,75.43
2018-01-12T04:59:26.679Z,75.43
2018-01-12T05:00:26.666Z,75.43
2018-01-12T05:01:26.655Z,75.43
2018-01-12T05:02:47.654Z,75.62
2018-01-12T05:03:26.654Z,75.43
2018-01-12T05:04:26.612Z,75.53
2018-01-12T05:05:26.617Z,75.53
2018-01-12T05:06:26.598Z,75.81
2018-01-12T05:07:26.588Z,75.62
2018-01-12T05:08:47.570Z,75.53
2018-01-12T05:09:26.562Z,75.34
2018-01-12T05:10:26.543Z,75.43
2018-01-12T05:11:26.533Z,75.53
2018-01-12T05:12:26.517Z,75.72
2018-01-12T05:13:26.520Z,75.15
2018-01-12T05:14:47.499Z,75.53
2018-01-12T05:15:26.481Z,74.77
2018-01-12T05:16:26.465Z,75.05
2018-01-12T05:17:26.452Z,75.43
2018-01-12T05:18:26.446Z,75.53
2018-01-12T05:19:26.477Z,75.72
2018-01-12T05:20:47.420Z,75.62
2018-01-12T05:21:26.403Z,74.96
2018-01-12T05:22:26.394Z,75.81
2018-01-12T05:23:26.376Z,75.53
2018-01-12T05:24:26.366Z,75.24
2018-01-12T05:25:26.351Z,75.15
2018-01-12T05:26:47.370Z,75.72
2018-01-12T05:27:26.324Z,75.53
2018-01-12T05:28:26.311Z,74.96
2018-01-12T05:29:26.320Z,75.81
2018-01-12T05:30:26.284Z,75.81
2018-01-12T05:31:26.278Z,75.81
2018-01-12T05:32:48.140Z,75.53
2018-01-12T05:33:26.245Z,75.24
2018-01-12T05:34:26.249Z,74.96
2018-01-12T05:35:26.215Z,75.53
2018-01-12T05:36:26.208Z,75.43
2018-01-12T05:37:26.202Z,75.15
2018-01-12T05:38:47.264Z,75.15
2018-01-12T05:39:26.195Z,75.72
2018-01-12T05:40:26.157Z,75.53
2018-01-12T05:41:26.192Z,75.72
2018-01-12T05:42:26.161Z,75.81
2018-01-12T05:43:26.130Z,75.24
2018-01-12T05:44:47.134Z,75.43
2018-01-12T05:45:26.092Z,75.91
2018-01-12T05:46:26.099Z,75.91
2018-01-12T05:47:26.076Z,75.53
2018-01-12T05:48:26.060Z,75.53
2018-01-12T05:49:26.039Z,75.91
2018-01-12T05:50:47.037Z,75.62
2018-01-12T05:51:26.024Z,75.15
2018-01-12T05:52:26.006Z,75.05
2018-01-12T05:53:26.003Z,75.43
2018-01-12T05:54:26.133Z,75.15
2018-01-12T05:55:25.976Z,75.05
2018-01-12T05:56:46.985Z,75.72
2018-01-12T05:57:25.964Z,75.53
2018-01-12T05:58:25.933Z,75.34
2018-01-12T05:59:26.052Z,75.43
2018-01-12T06:00:25.922Z,75.05
2018-01-12T06:01:25.906Z,75.72
2018-01-12T06:02:46.965Z,75.15
2018-01-12T06:03:25.883Z,75.91
2018-01-12T06:04:25.857Z,75.72
2018-01-12T06:05:25.940Z,75.53
2018-01-12T06:06:25.839Z,75.05
2018-01-12T06:07:25.821Z,75.72
2018-01-12T06:08:46.804Z,75.43
2018-01-12T06:09:25.813Z,75.72
2018-01-12T06:10:25.795Z,75.72
2018-01-12T06:11:25.770Z,75.15
2018-01-12T06:12:25.810Z,75.72
2018-01-12T06:13:25.761Z,75.53
2018-01-12T06:14:46.751Z,75.72
2018-01-12T06:15:25.714Z,75.53
2018-01-12T06:16:25.709Z,75.72
2018-01-12T06:17:25.712Z,75.53
2018-01-12T06:18:25.689Z,76.00
2018-01-12T06:19:25.690Z,75.53
2018-01-12T06:20:46.653Z,75.24
2018-01-12T06:21:25.641Z,75.24
2018-01-12T06:22:25.627Z,75.62
2018-01-12T06:23:25.613Z,75.53
2018-01-12T06:24:25.600Z,75.91
2018-01-12T06:25:25.588Z,76.00
2018-01-12T06:26:46.704Z,76.00
2018-01-12T06:27:25.583Z,75.91
2018-01-12T06:28:25.550Z,76.57
2018-01-12T06:29:26.128Z,76.10
2018-01-12T06:30:25.524Z,76.48
2018-01-12T06:31:25.512Z,76.10
2018-01-12T06:32:46.527Z,76.00
2018-01-12T06:33:25.489Z,75.91
2018-01-12T06:34:25.475Z,76.10
2018-01-12T06:35:25.457Z,76.00
2018-01-12T06:36:25.449Z,76.48
2018-01-12T06:37:25.435Z,76.00
2018-01-12T06:38:46.467Z,76.29
2018-01-12T06:39:25.462Z,76.29
2018-01-12T06:40:25.444Z,76.10
2018-01-12T06:41:25.395Z,76.10
2018-01-12T06:42:25.377Z,76.00
2018-01-12T06:43:25.360Z,76.00
2018-01-12T06:44:46.408Z,76.38
2018-01-12T06:45:25.335Z,76.38
2018-01-12T06:46:25.325Z,76.48
2018-01-12T06:47:25.311Z,76.38
2018-01-12T06:48:25.300Z,76.10
2018-01-12T06:49:25.288Z,76.38
2018-01-12T06:50:46.279Z,76.95
2018-01-12T06:51:25.262Z,76.29
2018-01-12T06:52:25.272Z,76.19
2018-01-12T06:53:25.245Z,76.67
2018-01-12T06:54:25.402Z,76.48
2018-01-12T06:55:25.222Z,76.29
2018-01-12T06:56:46.204Z,76.48
2018-01-12T06:57:25.187Z,76.48
2018-01-12T06:58:25.173Z,76.29
2018-01-12T06:59:25.215Z,76.76
2018-01-12T07:00:25.150Z,76.76
2018-01-12T07:01:25.195Z,76.57
2018-01-12T07:02:46.169Z,76.48
2018-01-12T07:03:25.184Z,77.14
2018-01-12T07:04:25.114Z,76.67
2018-01-12T07:05:25.090Z,76.95
2018-01-12T07:06:25.081Z,76.19
2018-01-12T07:07:25.222Z,76.10
2018-01-12T07:08:46.107Z,76.48
2018-01-12T07:09:25.394Z,76.76
2018-01-12T07:10:25.048Z,76.76
2018-01-12T07:11:25.020Z,76.86
2018-01-12T07:12:25.034Z,76.95
2018-01-12T07:13:24.991Z,76.29
2018-01-12T07:14:45.997Z,76.19
2018-01-12T07:15:24.970Z,76.10
2018-01-12T07:16:24.950Z,76.95
2018-01-12T07:17:24.937Z,76.76
2018-01-12T07:18:24.927Z,76.86
2018-01-12T07:19:24.920Z,76.95
2018-01-12T07:20:45.949Z,77.23
2018-01-12T07:21:24.922Z,76.86
2018-01-12T07:22:24.875Z,76.86
2018-01-12T07:23:24.876Z,76.86
2018-01-12T07:24:24.857Z,76.29
2018-01-12T07:25:24.834Z,76.95
2018-01-12T07:26:45.831Z,76.19
2018-01-12T07:27:24.817Z,76.86
2018-01-12T07:28:24.826Z,77.14
2018-01-12T07:29:24.790Z,76.86
2018-01-12T07:30:24.779Z,77.14
2018-01-12T07:31:24.765Z,77.14
2018-01-12T07:32:45.763Z,76.48
2018-01-12T07:33:24.742Z,77.14
2018-01-12T07:34:24.736Z,76.76
2018-01-12T07:35:24.754Z,77.33
2018-01-12T07:36:24.738Z,76.57
2018-01-12T07:37:24.694Z,77.04
2018-01-12T07:38:45.689Z,76.86
2018-01-12T07:39:24.667Z,77.61
2018-01-12T07:40:24.657Z,77.14
2018-01-12T07:41:24.642Z,76.95
2018-01-12T07:42:24.634Z,76.95
2018-01-12T07:43:24.631Z,77.33
2018-01-12T07:44:45.612Z,77.70
2018-01-12T07:45:24.605Z,77.04
2018-01-12T07:46:24.594Z,77.42
2018-01-12T07:47:24.582Z,76.95
2018-01-12T07:48:24.556Z,77.61
2018-01-12T07:49:24.548Z,77.14
2018-01-12T07:50:45.539Z,77.70
2018-01-12T07:51:24.533Z,77.42
2018-01-12T07:52:24.513Z,77.33
2018-01-12T07:53:24.503Z,77.51
2018-01-12T07:54:24.493Z,77.33
2018-01-12T07:55:24.474Z,77.14
2018-01-12T07:56:45.463Z,76.95
2018-01-12T07:57:24.454Z,77.33
2018-01-12T07:58:24.436Z,77.33
2018-01-12T07:59:24.415Z,77.51
2018-01-12T08:00:24.406Z,77.23
2018-01-12T08:01:24.397Z,77.70
2018-01-12T08:02:45.389Z,77.89
2018-01-12T08:03:24.372Z,77.51
2018-01-12T08:04:24.362Z,77.61
2018-01-12T08:05:24.507Z,77.61
2018-01-12T08:06:24.334Z,77.70
2018-01-12T08:07:24.325Z,77.61
2018-01-12T08:08:45.324Z,77.80
2018-01-12T08:09:24.295Z,77.80
2018-01-12T08:10:24.289Z,77.14
2018-01-12T08:11:24.272Z,77.51
2018-01-12T08:12:24.263Z,78.18
2018-01-12T08:13:24.340Z,77.51
2018-01-12T08:14:45.296Z,78.37
2018-01-12T08:15:24.222Z,78.18
2018-01-12T08:16:24.210Z,77.70
2018-01-12T08:17:24.340Z,77.70
2018-01-12T08:18:24.201Z,78.27
2018-01-12T08:19:24.191Z,77.51
2018-01-12T08:20:45.165Z,78.08
2018-01-12T08:21:24.150Z,77.61
2018-01-12T08:22:24.151Z,78.27
2018-01-12T08:23:24.125Z,77.80
2018-01-12T08:24:24.113Z,78.27
2018-01-12T08:25:24.115Z,78.27
2018-01-12T08:26:45.095Z,77.61
2018-01-12T08:27:24.078Z,78.46
2018-01-12T08:28:24.067Z,78.46
2018-01-12T08:29:24.060Z,77.70
2018-01-12T08:30:24.041Z,78.27
2018-01-12T08:31:24.034Z,77.51
2018-01-12T08:32:45.022Z,78.08
2018-01-12T08:33:24.005Z,78.46
2018-01-12T08:34:24.016Z,78.08
2018-01-12T08:35:24.002Z,77.99
2018-01-12T08:36:23.969Z,77.89
2018-01-12T08:37:23.961Z,77.70
2018-01-12T08:38:45.002Z,78.56
2018-01-12T08:39:23.934Z,78.31
2018-01-12T08:40:23.935Z,78.37
2018-01-12T08:41:23.912Z,78.65
2018-01-12T08:42:23.900Z,78.98
2018-01-12T08:43:23.889Z,78.98
2018-01-12T08:44:44.880Z,78.79
2018-01-12T08:45:23.866Z,78.31
2018-01-12T08:46:23.850Z,78.50
2018-01-12T08:47:23.851Z,78.98
2018-01-12T08:48:23.873Z,78.69
2018-01-12T08:49:23.881Z,79.74
2018-01-12T08:50:44.810Z,78.59
2018-01-12T08:51:23.810Z,80.21
2018-01-12T08:52:23.779Z,79.36
2018-01-12T08:53:23.767Z,79.26
2018-01-12T08:54:23.754Z,79.17
2018-01-12T08:55:23.833Z,80.40
2018-01-12T08:56:44.739Z,79.74
2018-01-12T08:57:23.723Z,79.26
2018-01-12T08:58:23.709Z,80.30
2018-01-12T08:59:23.698Z,80.58
2018-01-12T09:00:23.704Z,80.21
2018-01-12T09:01:23.679Z,79.17
2018-01-12T09:02:44.668Z,79.83
2018-01-12T09:03:23.649Z,80.58
2018-01-12T09:04:23.638Z,81.72
2018-01-12T09:05:23.636Z,80.02
2018-01-12T09:06:23.619Z,80.96
2018-01-12T09:07:23.608Z,80.30
2018-01-12T09:08:44.597Z,80.96
2018-01-12T09:09:23.584Z,78.88
2018-01-12T09:10:23.583Z,79.74
2018-01-12T09:11:23.563Z,79.74
2018-01-12T09:12:23.549Z,79.93
2018-01-12T09:13:23.537Z,79.45
2018-01-12T09:14:44.536Z,80.21
2018-01-12T09:15:23.515Z,81.34
2018-01-12T09:16:23.533Z,81.06
2018-01-12T09:17:23.539Z,80.96
2018-01-12T09:18:23.500Z,82.20
2018-01-12T09:19:23.491Z,80.77
2018-01-12T09:20:44.462Z,82.48
2018-01-12T09:21:23.448Z,81.53
2018-01-12T09:22:23.498Z,80.30
2018-01-12T09:23:23.427Z,81.72
2018-01-12T09:24:23.415Z,81.34
2018-01-12T09:25:23.411Z,81.82
2018-01-12T09:26:44.398Z,81.34
2018-01-12T09:27:23.400Z,80.40
2018-01-12T09:28:23.368Z,82.10
2018-01-12T09:29:23.360Z,80.96
2018-01-12T09:30:23.348Z,81.34
2018-01-12T09:31:23.333Z,80.30
2018-01-12T09:32:44.360Z,81.72
2018-01-12T09:33:23.398Z,81.15
2018-01-12T09:34:23.304Z,83.71
2018-01-12T09:35:23.294Z,82.20
2018-01-12T09:36:23.281Z,82.67
2018-01-12T09:37:23.272Z,82.95
2018-01-12T09:38:44.337Z,81.44
2018-01-12T09:39:23.249Z,83.71
2018-01-12T09:40:23.267Z,81.76
2018-01-12T09:41:23.228Z,83.71
2018-01-12T09:42:23.215Z,82.57
2018-01-12T09:43:23.207Z,82.95
2018-01-12T09:44:44.205Z,82.48
2018-01-12T09:45:23.210Z,82.39
2018-01-12T09:46:23.172Z,84.19
2018-01-12T09:47:23.190Z,83.24
2018-01-12T09:48:23.187Z,83.14
2018-01-12T09:49:23.180Z,83.71
2018-01-12T09:50:44.141Z,82.76
2018-01-12T09:51:23.118Z,82.76
2018-01-12T09:52:23.111Z,83.33
2018-01-12T09:53:23.095Z,83.85
2018-01-12T09:54:23.083Z,83.37
2018-01-12T09:55:23.076Z,83.85
2018-01-12T09:56:44.076Z,83.94
2018-01-12T09:57:23.055Z,84.42
2018-01-12T09:58:23.043Z,84.42
2018-01-12T09:59:23.030Z,83.85
2018-01-12T10:00:23.023Z,84.23
2018-01-12T10:01:23.010Z,83.75
2018-01-12T10:02:44.004Z,85.27
2018-01-12T10:03:22.993Z,85.55
2018-01-12T10:04:22.976Z,84.51
2018-01-12T10:05:22.971Z,85.36
2018-01-12T10:06:22.957Z,86.12
2018-01-12T10:07:22.969Z,84.23
2018-01-12T10:08:43.941Z,86.03
2018-01-12T10:09:22.927Z,85.17
2018-01-12T10:10:22.951Z,84.51
2018-01-12T10:11:22.913Z,85.36
2018-01-12T10:12:22.893Z,84.42
2018-01-12T10:13:22.883Z,84.80
2018-01-12T10:14:43.884Z,86.03
2018-01-12T10:15:22.858Z,85.46
2018-01-12T10:16:22.854Z,85.36
2018-01-12T10:17:22.849Z,85.08
2018-01-12T10:18:22.859Z,85.27
2018-01-12T10:19:22.867Z,86.22
2018-01-12T10:20:43.814Z,86.03
2018-01-12T10:21:22.798Z,85.08
2018-01-12T10:22:22.793Z,85.46
2018-01-12T10:23:22.782Z,86.98
2018-01-12T10:24:22.765Z,86.31
2018-01-12T10:25:22.774Z,85.17
2018-01-12T10:26:43.755Z,87.35
2018-01-12T10:27:22.740Z,85.93
2018-01-12T10:28:22.728Z,86.50
2018-01-12T10:29:22.717Z,87.35
2018-01-12T10:30:22.705Z,87.26
2018-01-12T10:31:22.699Z,86.22
2018-01-12T10:32:43.692Z,86.79
2018-01-12T10:33:22.682Z,87.64
2018-01-12T10:34:22.665Z,88.78
2018-01-12T10:35:22.676Z,89.06
2018-01-12T10:36:22.649Z,87.35
2018-01-12T10:37:22.633Z,84.89
2018-01-12T10:38:43.669Z,88.30
2018-01-12T10:39:22.614Z,87.35
2018-01-12T10:40:22.604Z,88.49
2018-01-12T10:41:22.661Z,87.26
2018-01-12T10:42:22.585Z,86.60
2018-01-12T10:43:22.583Z,87.83
2018-01-12T10:44:43.566Z,86.88
2018-01-12T10:45:22.561Z,88.16
2018-01-12T10:46:22.559Z,88.06
2018-01-12T10:47:22.567Z,88.06
2018-01-12T10:48:22.537Z,87.92
2018-01-12T10:49:22.549Z,87.77
2018-01-12T10:50:43.509Z,86.64
2018-01-12T10:51:22.497Z,87.59
2018-01-12T10:52:22.488Z,86.35
2018-01-12T10:53:22.474Z,88.63
2018-01-12T10:54:22.464Z,87.97
2018-01-12T10:55:22.453Z,87.77
2018-01-12T10:56:43.450Z,88.06
2018-01-12T10:57:22.450Z,88.35
2018-01-12T10:58:22.431Z,88.92
2018-01-12T10:59:22.419Z,87.97
2018-01-12T11:00:22.438Z,89.48
2018-01-12T11:01:22.398Z,88.25
2018-01-12T11:02:43.393Z,88.44
2018-01-12T11:03:22.376Z,87.77
2018-01-12T11:04:22.366Z,88.25
2018-01-12T11:05:22.358Z,87.40
2018-01-12T11:06:22.349Z,88.92
2018-01-12T11:07:22.368Z,87.30
2018-01-12T11:08:43.375Z,89.67
2018-01-12T11:09:22.321Z,87.40
2018-01-12T11:10:22.311Z,88.06
2018-01-12T11:11:22.301Z,90.24
2018-01-12T11:12:22.290Z,88.35
2018-01-12T11:13:22.303Z,88.35
2018-01-12T11:14:43.295Z,90.43
2018-01-12T11:15:22.305Z,88.92
2018-01-12T11:16:22.255Z,89.11
2018-01-12T11:17:22.289Z,88.92
2018-01-12T11:18:22.294Z,89.20
2018-01-12T11:19:22.236Z,89.11
2018-01-12T11:20:43.227Z,88.35
2018-01-12T11:21:22.206Z,89.67
2018-01-12T11:22:22.197Z,89.01
2018-01-12T11:23:22.186Z,89.01
2018-01-12T11:24:22.176Z,89.11
2018-01-12T11:25:22.168Z,89.77
2018-01-12T11:26:43.171Z,89.20
2018-01-12T11:27:22.150Z,89.01
2018-01-12T11:28:22.146Z,89.01
2018-01-12T11:29:22.131Z,89.58
2018-01-12T11:30:22.124Z,89.67
2018-01-12T11:31:22.109Z,87.49
2018-01-12T11:32:43.104Z,89.58
2018-01-12T11:33:22.093Z,89.20
2018-01-12T11:34:22.082Z,89.39
2018-01-12T11:35:22.068Z,88.44
2018-01-12T11:36:22.062Z,90.15
2018-01-12T11:37:22.064Z,89.01
2018-01-12T11:38:43.109Z,89.29
2018-01-12T11:39:22.029Z,89.48
2018-01-12T11:40:22.040Z,89.20
2018-01-12T11:41:22.043Z,89.29
2018-01-12T11:42:22.008Z,88.16
2018-01-12T11:43:22.000Z,90.24
2018-01-12T11:44:42.994Z,89.67
2018-01-12T11:45:21.977Z,89.01
2018-01-12T11:46:21.984Z,90.53
2018-01-12T11:47:21.980Z,89.01
2018-01-12T11:48:21.976Z,89.48
2018-01-12T11:49:22.008Z,89.58
2018-01-12T11:50:42.937Z,90.24
2018-01-12T11:51:21.941Z,90.15
2018-01-12T11:52:21.913Z,90.15
2018-01-12T11:53:21.908Z,89.11
2018-01-12T11:54:21.894Z,91.28
2018-01-12T11:55:21.886Z,90.81
2018-01-12T11:56:42.880Z,90.53
2018-01-12T11:57:21.867Z,90.05
2018-01-12T11:58:21.859Z,90.72
2018-01-12T11:59:21.846Z,89.86
2018-01-12T12:00:21.847Z,89.20
2018-01-12T12:01:21.826Z,89.29
2018-01-12T12:02:42.821Z,89.39
2018-01-12T12:03:21.807Z,90.24
2018-01-12T12:04:21.798Z,89.77
2018-01-12T12:05:21.790Z,89.48
2018-01-12T12:06:21.796Z,89.86
2018-01-12T12:07:21.778Z,90.15
2018-01-12T12:08:42.764Z,90.05
2018-01-12T12:09:21.750Z,90.62
2018-01-12T12:10:21.742Z,89.77
2018-01-12T12:11:21.729Z,90.72
2018-01-12T12:12:21.725Z,90.81
2018-01-12T12:13:21.764Z,90.34
2018-01-12T12:14:42.708Z,89.96
2018-01-12T12:15:21.698Z,91.47
2018-01-12T12:16:21.684Z,89.48
2018-01-12T12:17:21.686Z,90.34
2018-01-12T12:18:21.683Z,91.47
2018-01-12T12:19:21.688Z,90.81
2018-01-12T12:20:42.652Z,90.34
2018-01-12T12:21:21.636Z,89.48
2018-01-12T12:22:21.626Z,88.73
2018-01-12T12:23:21.619Z,91.28
2018-01-12T12:24:21.705Z,91.57
2018-01-12T12:25:21.598Z,91.47
2018-01-12T12:26:42.604Z,89.01
2018-01-12T12:27:21.580Z,90.24
2018-01-12T12:28:21.571Z,89.39
2018-01-12T12:29:21.560Z,90.43
2018-01-12T12:30:21.548Z,89.39
2018-01-12T12:31:21.545Z,90.34
2018-01-12T12:32:42.539Z,89.39
2018-01-12T12:33:21.561Z,88.63
2018-01-12T12:34:21.515Z,90.81
2018-01-12T12:35:21.509Z,90.62
2018-01-12T12:36:21.493Z,89.67
2018-01-12T12:37:21.482Z,88.59
2018-01-12T12:38:42.502Z,89.67
2018-01-12T12:39:21.502Z,89.15
2018-01-12T12:40:21.464Z,89.11
2018-01-12T12:41:21.444Z,89.39
2018-01-12T12:42:21.436Z,88.82
2018-01-12T12:43:21.424Z,88.78
2018-01-12T12:44:42.421Z,88.82
2018-01-12T12:45:21.408Z,91.81
2018-01-12T12:46:21.395Z,89.82
2018-01-12T12:47:21.453Z,89.34
2018-01-12T12:48:21.474Z,89.06
2018-01-12T12:49:21.454Z,89.63
2018-01-12T12:50:42.366Z,88.68
2018-01-12T12:51:21.345Z,89.53
2018-01-12T12:52:21.338Z,88.59